sensor_id;sensor_type;location;lat;lon;timestamp;P1;durP1;ratioP1;P2;durP2;ratioP2
74459;SDS011;62902;48.854;9.292;2022-11-25T00:01:19;11.00;;;4.22;;
74459;SDS011;62902;48.854;9.292;2022-11-25T00:03:47;11.68;;;4.18;;
74459;SDS011;62902;48.854;9.292;2022-11-25T00:06:16;9.02;;;3.78;;
74459;SDS011;62902;48.854;9.292;2022-11-25T00:08:45;11.30;;;3.85;;
74459;SDS011;62902;48.854;9.292;2022-11-25T00:13:39;7.80;;;3.63;;
74459;SDS011;62902;48.854;9.292;2022-11-25T00:16:11;10.38;;;3.67;;
74459;SDS011;62902;48.854;9.292;2022-11-25T00:18:42;8.88;;;3.60;;
74459;SDS011;62902;48.854;9.292;2022-11-25T00:21:12;7.22;;;3.47;;
74459;SDS011;62902;48.854;9.292;2022-11-25T00:23:40;11.23;;;3.22;;
74459;SDS011;62902;48.854;9.292;2022-11-25T00:26:08;13.75;;;3.88;;
74459;SDS011;62902;48.854;9.292;2022-11-25T00:28:35;6.93;;;3.50;;
74459;SDS011;62902;48.854;9.292;2022-11-25T00:31:03;9.15;;;3.42;;
74459;SDS011;62902;48.854;9.292;2022-11-25T00:33:34;6.00;;;2.97;;
74459;SDS011;62902;48.854;9.292;2022-11-25T00:36:01;7.60;;;3.40;;
74459;SDS011;62902;48.854;9.292;2022-11-25T00:38:29;7.25;;;3.45;;
74459;SDS011;62902;48.854;9.292;2022-11-25T00:40:56;7.32;;;3.28;;
74459;SDS011;62902;48.854;9.292;2022-11-25T00:43:41;7.20;;;3.30;;
74459;SDS011;62902;48.854;9.292;2022-11-25T00:46:26;8.73;;;3.35;;
74459;SDS011;62902;48.854;9.292;2022-11-25T00:48:53;7.68;;;3.25;;
74459;SDS011;62902;48.854;9.292;2022-11-25T00:51:19;13.55;;;3.45;;
74459;SDS011;62902;48.854;9.292;2022-11-25T00:53:46;5.70;;;2.90;;
74459;SDS011;62902;48.854;9.292;2022-11-25T00:56:12;6.43;;;2.90;;
74459;SDS011;62902;48.854;9.292;2022-11-25T00:58:43;7.07;;;2.83;;
74459;SDS011;62902;48.854;9.292;2022-11-25T01:01:10;8.68;;;3.03;;
74459;SDS011;62902;48.854;9.292;2022-11-25T01:03:39;7.03;;;2.40;;
74459;SDS011;62902;48.854;9.292;2022-11-25T01:06:09;4.85;;;2.38;;
74459;SDS011;62902;48.854;9.292;2022-11-25T01:08:36;7.22;;;3.15;;
74459;SDS011;62902;48.854;9.292;2022-11-25T01:11:05;6.07;;;2.55;;
74459;SDS011;62902;48.854;9.292;2022-11-25T01:13:38;6.63;;;2.92;;
74459;SDS011;62902;48.854;9.292;2022-11-25T01:16:05;7.85;;;2.55;;
74459;SDS011;62902;48.854;9.292;2022-11-25T01:18:33;6.57;;;2.40;;
74459;SDS011;62902;48.854;9.292;2022-11-25T01:21:04;9.70;;;2.78;;
74459;SDS011;62902;48.854;9.292;2022-11-25T01:23:35;10.25;;;2.95;;
74459;SDS011;62902;48.854;9.292;2022-11-25T01:26:06;5.30;;;2.65;;
74459;SDS011;62902;48.854;9.292;2022-11-25T01:28:35;8.60;;;2.97;;
74459;SDS011;62902;48.854;9.292;2022-11-25T01:31:02;7.80;;;3.00;;
74459;SDS011;62902;48.854;9.292;2022-11-25T01:33:32;9.68;;;3.22;;
74459;SDS011;62902;48.854;9.292;2022-11-25T01:38:30;7.25;;;2.92;;
74459;SDS011;62902;48.854;9.292;2022-11-25T01:40:57;6.70;;;2.55;;
74459;SDS011;62902;48.854;9.292;2022-11-25T01:43:24;11.18;;;2.70;;
74459;SDS011;62902;48.854;9.292;2022-11-25T01:46:26;8.63;;;2.60;;
74459;SDS011;62902;48.854;9.292;2022-11-25T01:48:57;7.45;;;2.63;;
74459;SDS011;62902;48.854;9.292;2022-11-25T01:51:31;6.90;;;2.42;;
74459;SDS011;62902;48.854;9.292;2022-11-25T01:54:17;6.70;;;2.88;;
74459;SDS011;62902;48.854;9.292;2022-11-25T01:56:50;4.97;;;2.25;;
74459;SDS011;62902;48.854;9.292;2022-11-25T01:59:21;4.70;;;2.40;;
74459;SDS011;62902;48.854;9.292;2022-11-25T02:01:48;6.50;;;2.55;;
74459;SDS011;62902;48.854;9.292;2022-11-25T02:04:15;8.20;;;2.60;;
74459;SDS011;62902;48.854;9.292;2022-11-25T02:06:53;6.90;;;2.38;;
74459;SDS011;62902;48.854;9.292;2022-11-25T02:09:23;7.22;;;2.47;;
74459;SDS011;62902;48.854;9.292;2022-11-25T02:11:50;7.00;;;2.92;;
74459;SDS011;62902;48.854;9.292;2022-11-25T02:14:17;6.40;;;2.70;;
74459;SDS011;62902;48.854;9.292;2022-11-25T02:16:45;11.15;;;2.58;;
74459;SDS011;62902;48.854;9.292;2022-11-25T02:19:37;8.63;;;2.72;;
74459;SDS011;62902;48.854;9.292;2022-11-25T02:25:19;8.70;;;2.55;;
74459;SDS011;62902;48.854;9.292;2022-11-25T02:27:46;9.32;;;2.72;;
74459;SDS011;62902;48.854;9.292;2022-11-25T02:30:16;9.93;;;2.75;;
74459;SDS011;62902;48.854;9.292;2022-11-25T02:32:43;6.03;;;2.53;;
74459;SDS011;62902;48.854;9.292;2022-11-25T02:35:46;5.20;;;2.40;;
74459;SDS011;62902;48.854;9.292;2022-11-25T02:38:09;8.13;;;2.88;;
74459;SDS011;62902;48.854;9.292;2022-11-25T02:40:48;8.60;;;2.50;;
74459;SDS011;62902;48.854;9.292;2022-11-25T02:43:18;8.20;;;2.95;;
74459;SDS011;62902;48.854;9.292;2022-11-25T02:48:30;6.88;;;2.83;;
74459;SDS011;62902;48.854;9.292;2022-11-25T02:51:19;10.02;;;3.38;;
74459;SDS011;62902;48.854;9.292;2022-11-25T02:53:47;8.32;;;2.70;;
74459;SDS011;62902;48.854;9.292;2022-11-25T02:56:17;6.93;;;2.78;;
74459;SDS011;62902;48.854;9.292;2022-11-25T02:58:46;6.65;;;2.42;;
74459;SDS011;62902;48.854;9.292;2022-11-25T03:01:13;5.95;;;3.08;;
74459;SDS011;62902;48.854;9.292;2022-11-25T03:03:40;6.15;;;2.45;;
74459;SDS011;62902;48.854;9.292;2022-11-25T03:06:07;10.38;;;3.47;;
74459;SDS011;62902;48.854;9.292;2022-11-25T03:08:34;5.05;;;2.83;;
74459;SDS011;62902;48.854;9.292;2022-11-25T03:11:05;7.00;;;2.88;;
74459;SDS011;62902;48.854;9.292;2022-11-25T03:13:32;5.28;;;2.50;;
74459;SDS011;62902;48.854;9.292;2022-11-25T03:15:59;10.32;;;2.50;;
74459;SDS011;62902;48.854;9.292;2022-11-25T03:18:26;6.00;;;2.63;;
74459;SDS011;62902;48.854;9.292;2022-11-25T03:20:53;6.45;;;2.33;;
74459;SDS011;62902;48.854;9.292;2022-11-25T03:23:22;6.88;;;2.67;;
74459;SDS011;62902;48.854;9.292;2022-11-25T03:25:52;6.70;;;2.60;;
74459;SDS011;62902;48.854;9.292;2022-11-25T03:28:18;6.97;;;2.92;;
74459;SDS011;62902;48.854;9.292;2022-11-25T03:30:45;8.27;;;3.15;;
74459;SDS011;62902;48.854;9.292;2022-11-25T03:33:12;8.00;;;2.65;;
74459;SDS011;62902;48.854;9.292;2022-11-25T03:35:39;8.60;;;2.88;;
74459;SDS011;62902;48.854;9.292;2022-11-25T03:38:06;6.53;;;2.33;;
74459;SDS011;62902;48.854;9.292;2022-11-25T03:40:35;7.72;;;2.80;;
74459;SDS011;62902;48.854;9.292;2022-11-25T03:43:02;7.10;;;2.78;;
74459;SDS011;62902;48.854;9.292;2022-11-25T03:45:28;6.68;;;2.25;;
74459;SDS011;62902;48.854;9.292;2022-11-25T03:47:57;6.40;;;2.75;;
74459;SDS011;62902;48.854;9.292;2022-11-25T03:50:25;5.20;;;2.40;;
74459;SDS011;62902;48.854;9.292;2022-11-25T03:52:52;4.65;;;2.50;;
74459;SDS011;62902;48.854;9.292;2022-11-25T03:55:19;4.75;;;2.28;;
74459;SDS011;62902;48.854;9.292;2022-11-25T04:00:14;6.55;;;2.47;;
74459;SDS011;62902;48.854;9.292;2022-11-25T04:02:48;7.22;;;2.97;;
74459;SDS011;62902;48.854;9.292;2022-11-25T04:05:17;5.90;;;2.70;;
74459;SDS011;62902;48.854;9.292;2022-11-25T04:07:44;6.35;;;2.75;;
74459;SDS011;62902;48.854;9.292;2022-11-25T04:10:10;9.40;;;2.83;;
74459;SDS011;62902;48.854;9.292;2022-11-25T04:12:37;4.95;;;2.58;;
74459;SDS011;62902;48.854;9.292;2022-11-25T04:15:23;6.38;;;2.55;;
74459;SDS011;62902;48.854;9.292;2022-11-25T04:17:54;7.28;;;2.80;;
74459;SDS011;62902;48.854;9.292;2022-11-25T04:20:21;16.55;;;3.33;;
74459;SDS011;62902;48.854;9.292;2022-11-25T04:22:54;5.38;;;2.65;;
74459;SDS011;62902;48.854;9.292;2022-11-25T04:25:21;5.32;;;2.47;;
74459;SDS011;62902;48.854;9.292;2022-11-25T04:27:48;5.60;;;2.70;;
74459;SDS011;62902;48.854;9.292;2022-11-25T04:30:20;6.55;;;2.83;;
74459;SDS011;62902;48.854;9.292;2022-11-25T04:32:47;8.32;;;3.00;;
74459;SDS011;62902;48.854;9.292;2022-11-25T04:35:14;5.95;;;2.75;;
74459;SDS011;62902;48.854;9.292;2022-11-25T04:37:44;7.10;;;3.17;;
74459;SDS011;62902;48.854;9.292;2022-11-25T04:40:12;8.13;;;2.90;;
74459;SDS011;62902;48.854;9.292;2022-11-25T04:42:44;6.03;;;3.05;;
74459;SDS011;62902;48.854;9.292;2022-11-25T04:45:13;6.13;;;2.70;;
74459;SDS011;62902;48.854;9.292;2022-11-25T04:47:53;9.02;;;3.50;;
74459;SDS011;62902;48.854;9.292;2022-11-25T04:50:21;6.63;;;3.03;;
74459;SDS011;62902;48.854;9.292;2022-11-25T04:52:54;6.38;;;2.70;;
74459;SDS011;62902;48.854;9.292;2022-11-25T04:55:22;6.32;;;2.58;;
74459;SDS011;62902;48.854;9.292;2022-11-25T04:57:54;7.18;;;3.33;;
74459;SDS011;62902;48.854;9.292;2022-11-25T05:00:21;5.93;;;3.00;;
74459;SDS011;62902;48.854;9.292;2022-11-25T05:02:48;5.50;;;2.47;;
74459;SDS011;62902;48.854;9.292;2022-11-25T05:05:18;6.32;;;2.78;;
74459;SDS011;62902;48.854;9.292;2022-11-25T05:07:45;7.22;;;2.83;;
74459;SDS011;62902;48.854;9.292;2022-11-25T05:10:13;7.30;;;3.10;;
74459;SDS011;62902;48.854;9.292;2022-11-25T05:12:45;4.80;;;2.35;;
74459;SDS011;62902;48.854;9.292;2022-11-25T05:15:15;7.35;;;3.10;;
74459;SDS011;62902;48.854;9.292;2022-11-25T05:17:45;8.25;;;3.20;;
74459;SDS011;62902;48.854;9.292;2022-11-25T05:20:12;5.65;;;2.40;;
74459;SDS011;62902;48.854;9.292;2022-11-25T05:22:42;7.18;;;3.35;;
74459;SDS011;62902;48.854;9.292;2022-11-25T05:25:15;5.80;;;2.80;;
74459;SDS011;62902;48.854;9.292;2022-11-25T05:27:56;7.63;;;2.92;;
74459;SDS011;62902;48.854;9.292;2022-11-25T05:30:22;7.30;;;2.70;;
74459;SDS011;62902;48.854;9.292;2022-11-25T05:32:50;6.38;;;2.85;;
74459;SDS011;62902;48.854;9.292;2022-11-25T05:35:16;7.57;;;3.33;;
74459;SDS011;62902;48.854;9.292;2022-11-25T05:37:44;6.65;;;3.10;;
74459;SDS011;62902;48.854;9.292;2022-11-25T05:40:11;6.22;;;3.00;;
74459;SDS011;62902;48.854;9.292;2022-11-25T05:42:54;6.95;;;3.08;;
74459;SDS011;62902;48.854;9.292;2022-11-25T05:45:24;6.95;;;2.70;;
74459;SDS011;62902;48.854;9.292;2022-11-25T05:48:03;9.23;;;3.42;;
74459;SDS011;62902;48.854;9.292;2022-11-25T05:50:31;6.72;;;3.25;;
74459;SDS011;62902;48.854;9.292;2022-11-25T05:53:16;7.38;;;3.30;;
74459;SDS011;62902;48.854;9.292;2022-11-25T05:58:28;5.90;;;2.83;;
74459;SDS011;62902;48.854;9.292;2022-11-25T06:00:57;9.52;;;2.67;;
74459;SDS011;62902;48.854;9.292;2022-11-25T06:03:25;7.40;;;3.10;;
74459;SDS011;62902;48.854;9.292;2022-11-25T06:05:57;7.93;;;3.13;;
74459;SDS011;62902;48.854;9.292;2022-11-25T06:08:27;7.43;;;3.05;;
74459;SDS011;62902;48.854;9.292;2022-11-25T06:13:23;9.07;;;2.65;;
74459;SDS011;62902;48.854;9.292;2022-11-25T06:15:53;6.68;;;2.90;;
74459;SDS011;62902;48.854;9.292;2022-11-25T06:18:19;8.60;;;3.08;;
74459;SDS011;62902;48.854;9.292;2022-11-25T06:20:57;6.80;;;3.03;;
74459;SDS011;62902;48.854;9.292;2022-11-25T06:23:24;6.95;;;3.05;;
74459;SDS011;62902;48.854;9.292;2022-11-25T06:25:51;5.80;;;2.80;;
74459;SDS011;62902;48.854;9.292;2022-11-25T06:28:18;7.93;;;3.33;;
74459;SDS011;62902;48.854;9.292;2022-11-25T06:30:48;9.10;;;3.35;;
74459;SDS011;62902;48.854;9.292;2022-11-25T06:35:49;7.65;;;3.08;;
74459;SDS011;62902;48.854;9.292;2022-11-25T06:38:15;5.18;;;2.67;;
74459;SDS011;62902;48.854;9.292;2022-11-25T06:40:42;7.10;;;3.15;;
74459;SDS011;62902;48.854;9.292;2022-11-25T06:43:08;6.63;;;2.58;;
74459;SDS011;62902;48.854;9.292;2022-11-25T06:45:35;6.72;;;2.85;;
74459;SDS011;62902;48.854;9.292;2022-11-25T06:48:02;8.43;;;3.17;;
74459;SDS011;62902;48.854;9.292;2022-11-25T06:50:29;8.95;;;3.05;;
74459;SDS011;62902;48.854;9.292;2022-11-25T06:52:55;7.05;;;2.80;;
74459;SDS011;62902;48.854;9.292;2022-11-25T06:55:22;7.00;;;3.30;;
74459;SDS011;62902;48.854;9.292;2022-11-25T06:57:48;7.45;;;3.50;;
74459;SDS011;62902;48.854;9.292;2022-11-25T07:00:18;11.18;;;4.03;;
74459;SDS011;62902;48.854;9.292;2022-11-25T07:02:46;8.95;;;3.65;;
74459;SDS011;62902;48.854;9.292;2022-11-25T07:05:14;6.68;;;3.15;;
74459;SDS011;62902;48.854;9.292;2022-11-25T07:07:40;8.88;;;3.70;;
74459;SDS011;62902;48.854;9.292;2022-11-25T07:10:07;8.07;;;3.58;;
74459;SDS011;62902;48.854;9.292;2022-11-25T07:12:34;10.13;;;3.67;;
74459;SDS011;62902;48.854;9.292;2022-11-25T07:15:02;7.00;;;3.47;;
74459;SDS011;62902;48.854;9.292;2022-11-25T07:17:28;9.85;;;3.67;;
74459;SDS011;62902;48.854;9.292;2022-11-25T07:19:55;8.18;;;3.40;;
74459;SDS011;62902;48.854;9.292;2022-11-25T07:22:22;9.85;;;4.20;;
74459;SDS011;62902;48.854;9.292;2022-11-25T07:24:48;10.80;;;4.07;;
74459;SDS011;62902;48.854;9.292;2022-11-25T07:27:15;6.97;;;3.38;;
74459;SDS011;62902;48.854;9.292;2022-11-25T07:29:41;7.95;;;3.50;;
74459;SDS011;62902;48.854;9.292;2022-11-25T07:32:28;10.85;;;4.40;;
74459;SDS011;62902;48.854;9.292;2022-11-25T07:34:58;8.00;;;3.75;;
74459;SDS011;62902;48.854;9.292;2022-11-25T07:37:25;7.68;;;3.75;;
74459;SDS011;62902;48.854;9.292;2022-11-25T07:39:52;7.97;;;3.53;;
74459;SDS011;62902;48.854;9.292;2022-11-25T07:42:19;7.55;;;3.25;;
74459;SDS011;62902;48.854;9.292;2022-11-25T07:44:46;8.88;;;4.18;;
74459;SDS011;62902;48.854;9.292;2022-11-25T07:47:34;8.98;;;3.70;;
74459;SDS011;62902;48.854;9.292;2022-11-25T07:50:01;10.85;;;4.00;;
74459;SDS011;62902;48.854;9.292;2022-11-25T07:52:27;10.18;;;4.00;;
74459;SDS011;62902;48.854;9.292;2022-11-25T07:54:54;13.88;;;3.92;;
74459;SDS011;62902;48.854;9.292;2022-11-25T07:57:21;10.05;;;4.35;;
74459;SDS011;62902;48.854;9.292;2022-11-25T07:59:48;12.02;;;4.03;;
74459;SDS011;62902;48.854;9.292;2022-11-25T08:02:15;8.07;;;3.45;;
74459;SDS011;62902;48.854;9.292;2022-11-25T08:04:41;9.48;;;3.90;;
74459;SDS011;62902;48.854;9.292;2022-11-25T08:07:08;10.82;;;4.10;;
74459;SDS011;62902;48.854;9.292;2022-11-25T08:09:35;9.23;;;4.05;;
74459;SDS011;62902;48.854;9.292;2022-11-25T08:12:03;8.45;;;3.42;;
74459;SDS011;62902;48.854;9.292;2022-11-25T08:14:29;6.95;;;3.08;;
74459;SDS011;62902;48.854;9.292;2022-11-25T08:16:56;8.90;;;3.83;;
74459;SDS011;62902;48.854;9.292;2022-11-25T08:19:22;11.73;;;3.92;;
74459;SDS011;62902;48.854;9.292;2022-11-25T08:21:56;10.80;;;4.30;;
74459;SDS011;62902;48.854;9.292;2022-11-25T08:24:23;10.25;;;3.90;;
74459;SDS011;62902;48.854;9.292;2022-11-25T08:26:49;9.90;;;3.78;;
74459;SDS011;62902;48.854;9.292;2022-11-25T08:29:17;12.55;;;4.40;;
74459;SDS011;62902;48.854;9.292;2022-11-25T08:31:44;15.02;;;7.35;;
74459;SDS011;62902;48.854;9.292;2022-11-25T08:34:18;11.05;;;4.60;;
74459;SDS011;62902;48.854;9.292;2022-11-25T08:36:48;14.40;;;5.32;;
74459;SDS011;62902;48.854;9.292;2022-11-25T08:39:15;10.43;;;4.75;;
74459;SDS011;62902;48.854;9.292;2022-11-25T08:42:02;12.60;;;4.13;;
74459;SDS011;62902;48.854;9.292;2022-11-25T08:44:32;11.05;;;4.05;;
74459;SDS011;62902;48.854;9.292;2022-11-25T08:46:59;7.30;;;3.50;;
74459;SDS011;62902;48.854;9.292;2022-11-25T08:49:26;12.70;;;4.72;;
74459;SDS011;62902;48.854;9.292;2022-11-25T08:51:59;9.93;;;3.55;;
74459;SDS011;62902;48.854;9.292;2022-11-25T08:54:26;6.78;;;3.38;;
74459;SDS011;62902;48.854;9.292;2022-11-25T08:56:52;7.40;;;3.33;;
74459;SDS011;62902;48.854;9.292;2022-11-25T08:59:19;10.38;;;3.80;;
74459;SDS011;62902;48.854;9.292;2022-11-25T09:01:47;7.10;;;3.28;;
74459;SDS011;62902;48.854;9.292;2022-11-25T09:04:14;7.97;;;4.05;;
74459;SDS011;62902;48.854;9.292;2022-11-25T09:06:42;8.60;;;3.97;;
74459;SDS011;62902;48.854;9.292;2022-11-25T09:09:09;11.20;;;4.78;;
74459;SDS011;62902;48.854;9.292;2022-11-25T09:11:35;9.32;;;4.15;;
74459;SDS011;62902;48.854;9.292;2022-11-25T09:14:02;9.70;;;3.80;;
74459;SDS011;62902;48.854;9.292;2022-11-25T09:16:29;10.95;;;3.90;;
74459;SDS011;62902;48.854;9.292;2022-11-25T09:18:56;12.70;;;5.03;;
74459;SDS011;62902;48.854;9.292;2022-11-25T09:21:22;10.18;;;4.10;;
74459;SDS011;62902;48.854;9.292;2022-11-25T09:23:50;11.43;;;3.63;;
74459;SDS011;62902;48.854;9.292;2022-11-25T09:26:26;10.43;;;3.80;;
74459;SDS011;62902;48.854;9.292;2022-11-25T09:28:54;6.82;;;2.95;;
74459;SDS011;62902;48.854;9.292;2022-11-25T09:31:21;8.00;;;3.83;;
74459;SDS011;62902;48.854;9.292;2022-11-25T09:33:48;7.70;;;3.78;;
74459;SDS011;62902;48.854;9.292;2022-11-25T09:36:16;8.23;;;3.13;;
74459;SDS011;62902;48.854;9.292;2022-11-25T09:38:43;7.75;;;2.85;;
74459;SDS011;62902;48.854;9.292;2022-11-25T09:43:57;8.25;;;3.35;;
74459;SDS011;62902;48.854;9.292;2022-11-25T09:57:26;10.52;;;3.92;;
74459;SDS011;62902;48.854;9.292;2022-11-25T10:02:38;12.73;;;3.88;;
74459;SDS011;62902;48.854;9.292;2022-11-25T10:05:29;7.97;;;3.40;;
74459;SDS011;62902;48.854;9.292;2022-11-25T10:07:58;9.85;;;4.03;;
74459;SDS011;62902;48.854;9.292;2022-11-25T10:10:34;6.78;;;3.20;;
74459;SDS011;62902;48.854;9.292;2022-11-25T10:13:10;11.88;;;3.38;;
74459;SDS011;62902;48.854;9.292;2022-11-25T10:15:42;10.40;;;3.38;;
74459;SDS011;62902;48.854;9.292;2022-11-25T10:18:57;7.40;;;2.50;;
74459;SDS011;62902;48.854;9.292;2022-11-25T10:21:05;6.82;;;2.90;;
74459;SDS011;62902;48.854;9.292;2022-11-25T10:23:33;8.02;;;2.22;;
74459;SDS011;62902;48.854;9.292;2022-11-25T10:26:35;6.63;;;2.92;;
74459;SDS011;62902;48.854;9.292;2022-11-25T10:29:18;8.55;;;2.70;;
74459;SDS011;62902;48.854;9.292;2022-11-25T10:31:48;8.13;;;2.97;;
74459;SDS011;62902;48.854;9.292;2022-11-25T10:34:21;9.60;;;3.03;;
74459;SDS011;62902;48.854;9.292;2022-11-25T10:36:52;5.93;;;2.80;;
74459;SDS011;62902;48.854;9.292;2022-11-25T10:39:20;8.18;;;3.55;;
74459;SDS011;62902;48.854;9.292;2022-11-25T10:44:25;5.35;;;2.85;;
74459;SDS011;62902;48.854;9.292;2022-11-25T10:52:31;7.75;;;2.92;;
74459;SDS011;62902;48.854;9.292;2022-11-25T10:55:22;8.15;;;3.10;;
74459;SDS011;62902;48.854;9.292;2022-11-25T10:57:51;6.13;;;3.28;;
74459;SDS011;62902;48.854;9.292;2022-11-25T11:03:12;13.45;;;3.55;;
74459;SDS011;62902;48.854;9.292;2022-11-25T11:05:45;10.55;;;3.00;;
74459;SDS011;62902;48.854;9.292;2022-11-25T11:08:15;7.68;;;3.63;;
74459;SDS011;62902;48.854;9.292;2022-11-25T11:10:47;9.57;;;3.80;;
74459;SDS011;62902;48.854;9.292;2022-11-25T11:13:58;8.68;;;4.07;;
74459;SDS011;62902;48.854;9.292;2022-11-25T11:16:42;10.18;;;4.18;;
74459;SDS011;62902;48.854;9.292;2022-11-25T11:19:21;11.27;;;3.75;;
74459;SDS011;62902;48.854;9.292;2022-11-25T11:21:49;7.57;;;3.90;;
74459;SDS011;62902;48.854;9.292;2022-11-25T11:24:35;9.00;;;3.65;;
74459;SDS011;62902;48.854;9.292;2022-11-25T11:27:20;12.70;;;4.30;;
74459;SDS011;62902;48.854;9.292;2022-11-25T11:29:50;17.58;;;4.68;;
74459;SDS011;62902;48.854;9.292;2022-11-25T11:32:34;9.27;;;4.43;;
74459;SDS011;62902;48.854;9.292;2022-11-25T11:37:38;11.13;;;4.07;;
74459;SDS011;62902;48.854;9.292;2022-11-25T11:42:53;14.38;;;4.55;;
74459;SDS011;62902;48.854;9.292;2022-11-25T11:45:37;11.25;;;4.65;;
74459;SDS011;62902;48.854;9.292;2022-11-25T11:48:20;11.02;;;4.28;;
74459;SDS011;62902;48.854;9.292;2022-11-25T11:50:52;11.93;;;4.68;;
74459;SDS011;62902;48.854;9.292;2022-11-25T11:56:37;14.65;;;4.47;;
74459;SDS011;62902;48.854;9.292;2022-11-25T12:04:52;11.68;;;4.93;;
74459;SDS011;62902;48.854;9.292;2022-11-25T12:07:46;11.98;;;4.45;;
74459;SDS011;62902;48.854;9.292;2022-11-25T12:10:31;12.23;;;4.78;;
74459;SDS011;62902;48.854;9.292;2022-11-25T12:19:01;17.60;;;5.30;;
74459;SDS011;62902;48.854;9.292;2022-11-25T12:29:27;13.00;;;4.93;;
74459;SDS011;62902;48.854;9.292;2022-11-25T12:31:57;19.65;;;5.70;;
74459;SDS011;62902;48.854;9.292;2022-11-25T12:34:34;12.43;;;5.57;;
74459;SDS011;62902;48.854;9.292;2022-11-25T12:37:09;9.05;;;4.22;;
74459;SDS011;62902;48.854;9.292;2022-11-25T12:39:44;12.30;;;4.00;;
74459;SDS011;62902;48.854;9.292;2022-11-25T12:42:24;10.90;;;4.70;;
74459;SDS011;62902;48.854;9.292;2022-11-25T12:47:49;10.30;;;4.53;;
74459;SDS011;62902;48.854;9.292;2022-11-25T12:53:08;13.80;;;5.57;;
74459;SDS011;62902;48.854;9.292;2022-11-25T12:55:56;12.20;;;5.18;;
74459;SDS011;62902;48.854;9.292;2022-11-25T13:04:15;12.63;;;4.95;;
74459;SDS011;62902;48.854;9.292;2022-11-25T13:07:03;11.45;;;4.80;;
74459;SDS011;62902;48.854;9.292;2022-11-25T13:12:39;10.20;;;4.57;;
74459;SDS011;62902;48.854;9.292;2022-11-25T13:15:17;12.23;;;4.65;;
74459;SDS011;62902;48.854;9.292;2022-11-25T13:17:48;9.98;;;4.22;;
74459;SDS011;62902;48.854;9.292;2022-11-25T13:20:38;12.63;;;4.68;;
74459;SDS011;62902;48.854;9.292;2022-11-25T13:25:39;10.80;;;5.05;;
74459;SDS011;62902;48.854;9.292;2022-11-25T13:36:18;12.27;;;5.30;;
74459;SDS011;62902;48.854;9.292;2022-11-25T13:46:50;11.80;;;5.20;;
74459;SDS011;62902;48.854;9.292;2022-11-25T13:49:29;11.10;;;5.18;;
74459;SDS011;62902;48.854;9.292;2022-11-25T13:51:57;13.27;;;4.80;;
74459;SDS011;62902;48.854;9.292;2022-11-25T13:54:31;15.40;;;4.68;;
74459;SDS011;62902;48.854;9.292;2022-11-25T13:59:37;10.88;;;4.90;;
74459;SDS011;62902;48.854;9.292;2022-11-25T14:25:18;10.38;;;3.65;;
74459;SDS011;62902;48.854;9.292;2022-11-25T14:27:49;9.10;;;3.67;;
74459;SDS011;62902;48.854;9.292;2022-11-25T14:30:18;12.02;;;4.03;;
74459;SDS011;62902;48.854;9.292;2022-11-25T14:35:19;9.65;;;3.63;;
74459;SDS011;62902;48.854;9.292;2022-11-25T14:40:22;10.80;;;3.72;;
74459;SDS011;62902;48.854;9.292;2022-11-25T14:42:53;6.05;;;2.72;;
74459;SDS011;62902;48.854;9.292;2022-11-25T14:45:29;7.90;;;2.65;;
74459;SDS011;62902;48.854;9.292;2022-11-25T14:48:20;6.68;;;2.40;;
74459;SDS011;62902;48.854;9.292;2022-11-25T14:50:57;6.55;;;2.15;;
74459;SDS011;62902;48.854;9.292;2022-11-25T14:53:25;6.43;;;2.33;;
74459;SDS011;62902;48.854;9.292;2022-11-25T14:55:53;9.63;;;2.78;;
74459;SDS011;62902;48.854;9.292;2022-11-25T14:58:21;7.72;;;2.45;;
74459;SDS011;62902;48.854;9.292;2022-11-25T15:00:49;7.68;;;2.47;;
74459;SDS011;62902;48.854;9.292;2022-11-25T15:03:18;9.40;;;2.25;;
74459;SDS011;62902;48.854;9.292;2022-11-25T15:05:48;7.72;;;2.17;;
74459;SDS011;62902;48.854;9.292;2022-11-25T15:08:19;9.15;;;1.95;;
74459;SDS011;62902;48.854;9.292;2022-11-25T15:10:51;10.00;;;2.08;;
74459;SDS011;62902;48.854;9.292;2022-11-25T15:13:22;6.50;;;2.05;;
74459;SDS011;62902;48.854;9.292;2022-11-25T15:15:49;8.82;;;1.98;;
74459;SDS011;62902;48.854;9.292;2022-11-25T15:18:19;11.95;;;2.08;;
74459;SDS011;62902;48.854;9.292;2022-11-25T15:20:55;9.32;;;2.35;;
74459;SDS011;62902;48.854;9.292;2022-11-25T15:23:25;12.35;;;2.25;;
74459;SDS011;62902;48.854;9.292;2022-11-25T15:25:54;5.93;;;1.90;;
74459;SDS011;62902;48.854;9.292;2022-11-25T15:28:20;5.03;;;1.30;;
74459;SDS011;62902;48.854;9.292;2022-11-25T15:30:54;9.02;;;1.60;;
74459;SDS011;62902;48.854;9.292;2022-11-25T15:33:23;7.70;;;1.92;;
74459;SDS011;62902;48.854;9.292;2022-11-25T15:35:50;7.05;;;1.50;;
74459;SDS011;62902;48.854;9.292;2022-11-25T15:38:17;12.43;;;1.77;;
74459;SDS011;62902;48.854;9.292;2022-11-25T15:40:53;8.07;;;1.60;;
74459;SDS011;62902;48.854;9.292;2022-11-25T15:43:25;4.35;;;1.60;;
74459;SDS011;62902;48.854;9.292;2022-11-25T15:45:55;6.60;;;1.63;;
74459;SDS011;62902;48.854;9.292;2022-11-25T15:48:59;8.57;;;1.70;;
74459;SDS011;62902;48.854;9.292;2022-11-25T15:53:56;3.72;;;1.55;;
74459;SDS011;62902;48.854;9.292;2022-11-25T15:56:27;10.60;;;1.88;;
74459;SDS011;62902;48.854;9.292;2022-11-25T15:58:54;6.00;;;1.83;;
74459;SDS011;62902;48.854;9.292;2022-11-25T16:01:27;10.82;;;2.35;;
74459;SDS011;62902;48.854;9.292;2022-11-25T16:04:07;6.22;;;1.50;;
74459;SDS011;62902;48.854;9.292;2022-11-25T16:06:36;7.63;;;1.60;;
74459;SDS011;62902;48.854;9.292;2022-11-25T16:09:03;9.73;;;1.83;;
74459;SDS011;62902;48.854;9.292;2022-11-25T16:11:42;7.43;;;1.80;;
74459;SDS011;62902;48.854;9.292;2022-11-25T16:14:27;6.57;;;1.77;;
74459;SDS011;62902;48.854;9.292;2022-11-25T16:17:01;10.70;;;3.17;;
74459;SDS011;62902;48.854;9.292;2022-11-25T16:19:33;8.32;;;3.47;;
74459;SDS011;62902;48.854;9.292;2022-11-25T16:22:08;8.55;;;3.80;;
74459;SDS011;62902;48.854;9.292;2022-11-25T16:24:39;11.48;;;4.82;;
74459;SDS011;62902;48.854;9.292;2022-11-25T16:27:17;9.48;;;4.40;;
74459;SDS011;62902;48.854;9.292;2022-11-25T16:32:16;15.65;;;7.28;;
74459;SDS011;62902;48.854;9.292;2022-11-25T16:34:44;15.40;;;6.18;;
74459;SDS011;62902;48.854;9.292;2022-11-25T16:37:11;15.18;;;6.22;;
74459;SDS011;62902;48.854;9.292;2022-11-25T16:39:37;10.27;;;5.05;;
74459;SDS011;62902;48.854;9.292;2022-11-25T16:42:06;7.97;;;4.38;;
74459;SDS011;62902;48.854;9.292;2022-11-25T16:44:33;9.85;;;4.25;;
74459;SDS011;62902;48.854;9.292;2022-11-25T16:47:01;10.27;;;4.05;;
74459;SDS011;62902;48.854;9.292;2022-11-25T16:49:29;6.13;;;2.90;;
74459;SDS011;62902;48.854;9.292;2022-11-25T16:51:56;8.30;;;2.45;;
74459;SDS011;62902;48.854;9.292;2022-11-25T16:54:22;9.27;;;2.40;;
74459;SDS011;62902;48.854;9.292;2022-11-25T16:56:50;5.88;;;2.00;;
74459;SDS011;62902;48.854;9.292;2022-11-25T16:59:19;3.90;;;1.75;;
74459;SDS011;62902;48.854;9.292;2022-11-25T17:01:50;8.18;;;2.60;;
74459;SDS011;62902;48.854;9.292;2022-11-25T17:04:18;7.45;;;2.00;;
74459;SDS011;62902;48.854;9.292;2022-11-25T17:06:44;6.63;;;1.92;;
74459;SDS011;62902;48.854;9.292;2022-11-25T17:09:31;6.75;;;2.53;;
74459;SDS011;62902;48.854;9.292;2022-11-25T17:11:58;5.60;;;2.08;;
74459;SDS011;62902;48.854;9.292;2022-11-25T17:14:31;5.60;;;1.58;;
74459;SDS011;62902;48.854;9.292;2022-11-25T17:19:26;7.63;;;1.85;;
74459;SDS011;62902;48.854;9.292;2022-11-25T17:21:53;5.97;;;1.80;;
74459;SDS011;62902;48.854;9.292;2022-11-25T17:24:23;8.98;;;2.33;;
74459;SDS011;62902;48.854;9.292;2022-11-25T17:27:00;7.88;;;2.05;;
74459;SDS011;62902;48.854;9.292;2022-11-25T17:29:33;11.52;;;2.33;;
74459;SDS011;62902;48.854;9.292;2022-11-25T17:32:01;6.35;;;1.83;;
74459;SDS011;62902;48.854;9.292;2022-11-25T17:34:29;8.95;;;2.30;;